createdAt,value
2019-02-02T05:00:23.516Z,99709.906
2019-02-02T05:03:51.415Z,99717.203
2019-02-02T05:07:20.283Z,99722.781
2019-02-02T05:10:48.197Z,99720.265
2019-02-02T05:14:16.109Z,99725.593
2019-02-02T05:17:44.143Z,99715.859
2019-02-02T05:21:11.968Z,99720.859
2019-02-02T05:24:39.873Z,99727.835
2019-02-02T05:28:07.767Z,99721.742
2019-02-02T05:31:35.681Z,99723.687
2019-02-02T05:35:03.576Z,99709.531
2019-02-02T05:38:31.498Z,99699.07
2019-02-02T05:41:59.385Z,99695.273
2019-02-02T05:45:27.309Z,99698.218
2019-02-02T05:48:55.213Z,99700.218
2019-02-02T05:52:23.104Z,99693.328
2019-02-02T05:55:51.045Z,99692.343
2019-02-02T05:59:18.952Z,99694.148
2019-02-02T06:02:46.837Z,99688.218
2019-02-02T06:06:14.741Z,99669.703
2019-02-02T06:09:42.654Z,99659.984
2019-02-02T06:13:10.555Z,99651.695
2019-02-02T06:16:39.444Z,99644.046
2019-02-02T06:20:07.336Z,99648.031
2019-02-02T06:23:35.269Z,99639.234
2019-02-02T06:27:03.159Z,99623.5
2019-02-02T06:30:31.073Z,99615.046
2019-02-02T06:33:58.982Z,99599.796
2019-02-02T06:37:26.872Z,99593.234
2019-02-02T06:40:54.809Z,99606.328
2019-02-02T06:44:22.719Z,99623.976
2019-02-02T06:47:50.622Z,99635.328
2019-02-02T06:51:18.614Z,99653.609
2019-02-02T06:54:46.385Z,99665.39
2019-02-02T06:58:14.281Z,99667.437
2019-02-02T07:01:42.193Z,99668.539
2019-02-02T07:05:10.090Z,99657.515
2019-02-02T07:08:37.988Z,99659.867
2019-02-02T07:12:06.861Z,99663.531
2019-02-02T07:15:34.775Z,99665.718
2019-02-02T07:19:02.696Z,99674.406
2019-02-02T07:22:30.601Z,99677.234
2019-02-02T07:25:58.501Z,99673.375
2019-02-02T07:29:27.019Z,99671.984
2019-02-02T07:32:54.924Z,99677
2019-02-02T07:36:22.812Z,99672.945
2019-02-02T07:39:50.724Z,99670.195
2019-02-02T07:43:18.635Z,99682.515
2019-02-02T07:46:46.521Z,99669.843
2019-02-02T07:50:14.419Z,99681.64
2019-02-02T07:53:43.320Z,99668.601
2019-02-02T07:57:11.220Z,99666.804
2019-02-02T08:00:41.769Z,99656.718
2019-02-02T08:04:09.008Z,99659.796
2019-02-02T08:07:36.918Z,99669.75
2019-02-02T08:11:04.886Z,99680.242
2019-02-02T08:14:32.887Z,99677.89
2019-02-02T08:18:00.853Z,99688.062
2019-02-02T08:21:28.741Z,99700.453
2019-02-02T08:24:57.667Z,99705.867
2019-02-02T08:28:25.576Z,99721.421
2019-02-02T08:31:53.458Z,99725.296
2019-02-02T08:35:21.401Z,99731.953
2019-02-02T08:38:49.308Z,99740
2019-02-02T08:42:18.199Z,99730.664
2019-02-02T08:45:46.162Z,99729.421
2019-02-02T08:49:13.995Z,99733.14
2019-02-02T08:52:41.882Z,99740.546
2019-02-02T08:56:09.791Z,99735.796
2019-02-02T08:59:37.710Z,99737.32
2019-02-02T09:03:05.600Z,99734.921
2019-02-02T09:06:38.818Z,99731.89
2019-02-02T09:10:05.364Z,99733.96
2019-02-02T09:13:33.247Z,99720.64
2019-02-02T09:17:02.138Z,99706.835
2019-02-02T09:20:30.039Z,99706.546
2019-02-02T09:23:57.938Z,99698.64
2019-02-02T09:27:25.872Z,99714.39
2019-02-02T09:30:53.804Z,99704.812
2019-02-02T09:34:21.682Z,99709.195
2019-02-02T09:37:50.582Z,99705.437
2019-02-02T09:41:18.507Z,99707.507
2019-02-02T09:44:46.522Z,99723.062
2019-02-02T09:48:14.530Z,99733.476
2019-02-02T09:51:42.434Z,99736.515
2019-02-02T09:55:11.322Z,99741.828
2019-02-02T09:58:39.231Z,99741.015
2019-02-02T10:02:07.158Z,99743.734
2019-02-02T10:05:35.148Z,99749.953
2019-02-02T10:09:04.101Z,99756.296
2019-02-02T10:12:32.002Z,99761
2019-02-02T10:15:59.943Z,99766.132
2019-02-02T10:19:27.843Z,99764.578
2019-02-02T10:22:56.745Z,99760.968
2019-02-02T10:26:24.685Z,99759.375
2019-02-02T10:29:52.632Z,99763.21
2019-02-02T10:33:20.505Z,99760.015
2019-02-02T10:36:48.459Z,99752.781
2019-02-02T10:40:16.739Z,99759.187
2019-02-02T10:43:44.630Z,99757.093
2019-02-02T10:47:12.564Z,99751.906
2019-02-02T10:50:40.513Z,99744.273
2019-02-02T10:54:08.522Z,99743.75
2019-02-02T10:57:37.400Z,99735.859
2019-02-02T11:01:05.419Z,99726.671
2019-02-02T11:04:33.355Z,99729.21
2019-02-02T11:08:01.427Z,99724.109
2019-02-02T11:11:29.159Z,99709.515
2019-02-02T11:14:57.065Z,99706.976
2019-02-02T11:18:25.084Z,99701.757
2019-02-02T11:21:53.163Z,99707.25
2019-02-02T11:25:20.932Z,99710.437
2019-02-02T11:28:50.053Z,99715.968
2019-02-02T11:32:17.848Z,99713.718
2019-02-02T11:35:45.805Z,99710.757
2019-02-02T11:39:13.691Z,99714.484
2019-02-02T11:42:42.710Z,99723.906
2019-02-02T11:46:10.674Z,99724.5
2019-02-02T11:49:38.571Z,99718.421
2019-02-02T11:53:06.478Z,99721.234
2019-02-02T11:56:34.538Z,99717.828
2019-02-02T12:00:02.394Z,99711.234
2019-02-02T12:03:30.315Z,99711.601
2019-02-02T12:06:58.253Z,99703.765
2019-02-02T12:10:26.210Z,99697.656
2019-02-02T12:13:54.157Z,99702.757
2019-02-02T12:17:22.138Z,99699.609
2019-02-02T12:20:50.110Z,99697.171
2019-02-02T12:24:18.057Z,99698.382
2019-02-02T12:27:45.972Z,99693
2019-02-02T12:31:13.892Z,99698.093
2019-02-02T12:34:41.810Z,99693.929
2019-02-02T12:38:10.690Z,99694.796
2019-02-02T12:41:38.597Z,99688.859
2019-02-02T12:45:06.510Z,99684.585
2019-02-02T12:48:34.399Z,99680.64
2019-02-02T12:52:02.303Z,99672.656
2019-02-02T12:55:30.218Z,99677.125
2019-02-02T12:58:58.104Z,99678.289
2019-02-02T13:02:37.737Z,99676.968
2019-02-02T13:06:00.864Z,99680.812
2019-02-02T13:09:28.792Z,99681.648
2019-02-02T13:12:56.677Z,99679.406
2019-02-02T13:16:24.627Z,99674.5
2019-02-02T13:19:52.559Z,99680.687
2019-02-02T13:23:20.538Z,99686.984
2019-02-02T13:26:48.528Z,99688.625
2019-02-02T13:30:16.553Z,99692.14
2019-02-02T13:33:44.543Z,99694.328
2019-02-02T13:37:12.504Z,99698.812
2019-02-02T13:40:41.762Z,99704.062
2019-02-02T13:44:09.804Z,99704.609
2019-02-02T13:47:38.870Z,99703.171
2019-02-02T13:51:07.837Z,99708.554
2019-02-02T13:54:35.786Z,99701.671
2019-02-02T13:58:04.143Z,99695.32
2019-02-02T14:01:41.625Z,99693.234
2019-02-02T14:05:06.206Z,99696.546
2019-02-02T14:08:34.635Z,99699.093
2019-02-02T14:12:03.574Z,99700.335
2019-02-02T14:15:31.757Z,99702.562
2019-02-02T14:19:00.673Z,99707.195
2019-02-02T14:22:28.985Z,99710.07
2019-02-02T14:25:56.882Z,99712.679
2019-02-02T14:29:24.873Z,99710.023
2019-02-02T14:32:54.750Z,99716.531
2019-02-02T14:36:22.688Z,99721.046
2019-02-02T14:39:51.640Z,99731.523
2019-02-02T14:43:20.588Z,99725.64
2019-02-02T14:46:48.520Z,99734.773
2019-02-02T14:50:18.828Z,99732.414
2019-02-02T14:53:47.286Z,99737.695
2019-02-02T14:57:15.188Z,99740.765
2019-02-02T15:00:43.130Z,99744.492
2019-02-02T15:04:11.084Z,99749.289
2019-02-02T15:07:39.022Z,99751.578
2019-02-02T15:11:07.159Z,99741.031
2019-02-02T15:14:35.108Z,99742.953
2019-02-02T15:18:03.025Z,99740.164
2019-02-02T15:21:30.984Z,99744.171
2019-02-02T15:24:59.003Z,99750.468
2019-02-02T15:28:26.967Z,99759.953
2019-02-02T15:31:54.953Z,99754.687
2019-02-02T15:35:22.957Z,99754.898
2019-02-02T15:38:50.866Z,99749.664
2019-02-02T15:42:19.776Z,99750.187
2019-02-02T15:45:47.768Z,99753.39
2019-02-02T15:49:15.792Z,99747.734
2019-02-02T15:52:44.798Z,99742.531
2019-02-02T15:56:13.047Z,99747.656
2019-02-02T15:59:40.880Z,99750.453
2019-02-02T16:03:08.811Z,99753.82
2019-02-02T16:06:36.724Z,99756.734
2019-02-02T16:10:04.709Z,99754.507
2019-02-02T16:13:32.603Z,99756.828
2019-02-02T16:17:00.578Z,99757.625
2019-02-02T16:20:28.549Z,99765.929
2019-02-02T16:23:56.492Z,99766.781
2019-02-02T16:27:24.428Z,99782.5
2019-02-02T16:30:52.448Z,99777.593
2019-02-02T16:34:20.401Z,99782.39
2019-02-02T16:37:48.321Z,99782.593
2019-02-02T16:41:16.376Z,99784.671
2019-02-02T16:44:45.289Z,99783.609
2019-02-02T16:48:13.307Z,99790.953
2019-02-02T16:51:41.204Z,99800.578
2019-02-02T16:55:09.151Z,99800.453
2019-02-02T16:58:38.116Z,99805.171
2019-02-02T17:02:06.079Z,99809.328
2019-02-02T17:05:34.068Z,99812.921
2019-02-02T17:09:03.151Z,99819.234
2019-02-02T17:12:31.235Z,99830.57
2019-02-02T17:15:59.219Z,99835.757
2019-02-02T17:19:27.199Z,99836
2019-02-02T17:22:55.185Z,99843.109
2019-02-02T17:26:23.074Z,99846.976
2019-02-02T17:29:51.052Z,99846.578
2019-02-02T17:33:18.990Z,99846.546
2019-02-02T17:36:46.907Z,99851.007
2019-02-02T17:40:14.842Z,99854.953
2019-02-02T17:43:42.753Z,99862.14
2019-02-02T17:47:10.738Z,99861.093
2019-02-02T17:50:39.938Z,99867.64
2019-02-02T17:54:07.906Z,99872.39
2019-02-02T17:57:35.819Z,99873.875
2019-02-02T18:01:03.756Z,99879.609
2019-02-02T18:04:39.335Z,99884.398
2019-02-02T18:08:07.527Z,99887.546
2019-02-02T18:11:35.424Z,99891.257
2019-02-02T18:15:03.411Z,99895.921
2019-02-02T18:18:31.371Z,99898.32
2019-02-02T18:21:59.347Z,99908.125
2019-02-02T18:25:27.335Z,99919.398
2019-02-02T18:28:56.264Z,99922.226
2019-02-02T18:32:24.216Z,99918.5
2019-02-02T18:35:52.200Z,99922.484
2019-02-02T18:39:20.146Z,99925.554
2019-02-02T18:42:48.101Z,99933.375
2019-02-02T18:46:16.123Z,99936.117
2019-02-02T18:49:44.113Z,99938.421
2019-02-02T18:53:12.034Z,99935.429
2019-02-02T18:56:39.922Z,99942.289
2019-02-02T19:00:07.848Z,99948.093
2019-02-02T19:03:35.766Z,99947.718
2019-02-02T19:07:03.714Z,99955.218
2019-02-02T19:10:31.679Z,99964.218
2019-02-02T19:13:59.721Z,99973.14
2019-02-02T19:17:27.655Z,99972.218
2019-02-02T19:20:55.683Z,99979.75
2019-02-02T19:24:23.654Z,99985.359
2019-02-02T19:27:51.624Z,99989.984
2019-02-02T19:31:19.551Z,99997.007
2019-02-02T19:34:47.469Z,100000.35
2019-02-02T19:38:15.681Z,100007.27
2019-02-02T19:41:43.539Z,100010.65
2019-02-02T19:45:11.504Z,100015.46
2019-02-02T19:48:39.439Z,100019.14
2019-02-02T19:52:08.259Z,100025.2
2019-02-02T19:55:36.164Z,100034.31
2019-02-02T19:59:04.160Z,100040.34
2019-02-02T20:02:32.098Z,100042.92
2019-02-02T20:06:00.108Z,100052.01
2019-02-02T20:09:30.011Z,100059.82
2019-02-02T20:12:58.084Z,100066.55
2019-02-02T20:16:26.054Z,100073.09
2019-02-02T20:19:54.561Z,100084.38
2019-02-02T20:23:23.268Z,100080.9
2019-02-02T20:26:51.215Z,100088.53
2019-02-02T20:30:19.140Z,100092.19
2019-02-02T20:33:47.082Z,100104.76
2019-02-02T20:37:15.016Z,100113.37
2019-02-02T20:40:43.970Z,100117.67
2019-02-02T20:44:11.936Z,100116.43
2019-02-02T20:47:40.047Z,100110.85
2019-02-02T20:51:07.994Z,100112.89
2019-02-02T20:54:35.946Z,100114.96
2019-02-02T20:58:03.973Z,100113.85
2019-02-02T21:01:32.198Z,100117.91
2019-02-02T21:05:00.327Z,100107.73
2019-02-02T21:08:34.819Z,100112.2
2019-02-02T21:12:02.901Z,100113.76
2019-02-02T21:15:30.905Z,100115.54
2019-02-02T21:18:58.853Z,100113.79
2019-02-02T21:22:26.830Z,100124.82
2019-02-02T21:25:55.055Z,100138.06
2019-02-02T21:29:23.118Z,100159.93
2019-02-02T21:32:51.103Z,100179.46
2019-02-02T21:36:19.851Z,100167.5
2019-02-02T21:39:47.904Z,100166.45
2019-02-02T21:43:16.953Z,100191.42
2019-02-02T21:46:45.773Z,100211.65
2019-02-02T21:50:13.689Z,100209.71
2019-02-02T21:53:41.641Z,100208.57
2019-02-02T21:57:09.563Z,100217.96
2019-02-02T22:00:37.487Z,100227.34
2019-02-02T22:04:05.385Z,100247.57
2019-02-02T22:07:33.337Z,100259.18
2019-02-02T22:11:01.878Z,100260.25
2019-02-02T22:14:30.831Z,100257.67
2019-02-02T22:17:59.532Z,100262.93
2019-02-02T22:21:27.514Z,100276.17
2019-02-02T22:24:55.458Z,100278.23
2019-02-02T22:28:23.476Z,100292.59
2019-02-02T22:31:51.438Z,100302.6
2019-02-02T22:35:19.465Z,100313.46
2019-02-02T22:38:47.425Z,100329.39
2019-02-02T22:42:16.159Z,100335.4
2019-02-02T22:45:44.102Z,100344.52
2019-02-02T22:49:12.021Z,100348.01
2019-02-02T22:52:40.161Z,100351.67
2019-02-02T22:56:08.736Z,100352.31
2019-02-02T22:59:36.719Z,100355.64
